createdAt,value
2022-10-29T00:00:50.603Z,11.41
2022-10-29T00:03:18.163Z,11.33
2022-10-29T00:05:55.287Z,11.30
2022-10-29T00:08:22.371Z,11.32
2022-10-29T00:10:49.530Z,11.37
2022-10-29T00:13:17.221Z,11.37
2022-10-29T00:15:44.350Z,11.35
2022-10-29T00:18:11.454Z,11.35
2022-10-29T00:20:38.657Z,11.32
2022-10-29T00:23:05.820Z,11.29
2022-10-29T00:25:32.901Z,11.30
2022-10-29T00:27:59.983Z,11.32
2022-10-29T00:30:27.232Z,11.34
2022-10-29T00:32:54.547Z,11.33
2022-10-29T00:35:21.849Z,11.34
2022-10-29T00:37:48.946Z,11.34
2022-10-29T00:40:16.181Z,11.30
2022-10-29T00:42:43.245Z,11.29
2022-10-29T00:45:19.482Z,11.33
2022-10-29T00:47:50.889Z,11.34
2022-10-29T00:50:21.927Z,11.30
2022-10-29T00:52:50.728Z,11.28
2022-10-29T00:55:19.615Z,11.29
2022-10-29T00:57:51.390Z,11.29
2022-10-29T01:00:19.663Z,11.31
2022-10-29T01:02:47.301Z,11.25
2022-10-29T01:05:19.850Z,11.24
2022-10-29T01:07:47.593Z,11.22
2022-10-29T01:10:16.333Z,11.13
2022-10-29T01:12:53.687Z,11.10
2022-10-29T01:15:28.395Z,11.05
2022-10-29T01:18:26.082Z,11.04
2022-10-29T01:21:20.899Z,10.99
2022-10-29T01:24:15.570Z,10.95
2022-10-29T01:27:21.180Z,10.87
2022-10-29T01:30:21.481Z,10.85
2022-10-29T01:33:03.641Z,10.83
2022-10-29T01:35:52.353Z,10.81
2022-10-29T01:38:19.400Z,10.79
2022-10-29T01:40:58.318Z,10.80
2022-10-29T01:43:33.325Z,10.71
2022-10-29T01:46:08.112Z,10.74
2022-10-29T01:48:39.721Z,10.72
2022-10-29T01:51:12.805Z,10.63
2022-10-29T01:53:41.065Z,10.61
2022-10-29T01:56:08.198Z,10.61
2022-10-29T01:58:37.526Z,10.63
2022-10-29T02:01:13.681Z,10.64
2022-10-29T02:03:50.543Z,10.63
2022-10-29T02:06:53.086Z,10.63
2022-10-29T02:09:32.456Z,10.64
2022-10-29T02:12:24.091Z,10.63
2022-10-29T02:15:02.784Z,10.61
2022-10-29T02:17:34.233Z,10.59
2022-10-29T02:20:10.502Z,10.58
2022-10-29T02:22:38.641Z,10.60
2022-10-29T02:25:08.056Z,10.61
2022-10-29T02:27:35.294Z,10.59
2022-10-29T02:30:02.522Z,10.58
2022-10-29T02:32:29.669Z,10.55
2022-10-29T02:34:56.841Z,10.51
2022-10-29T02:37:23.989Z,10.50
2022-10-29T02:39:51.113Z,10.45
2022-10-29T02:42:18.195Z,10.42
2022-10-29T02:44:45.290Z,10.40
2022-10-29T02:47:12.419Z,10.37
2022-10-29T02:49:39.537Z,10.32
2022-10-29T02:52:06.949Z,10.23
2022-10-29T02:54:34.153Z,10.23
2022-10-29T02:57:01.270Z,10.21
2022-10-29T02:59:28.357Z,10.19
2022-10-29T03:01:55.593Z,10.16
2022-10-29T03:04:23.009Z,10.14
2022-10-29T03:06:50.205Z,10.14
2022-10-29T03:09:17.287Z,10.15
2022-10-29T03:11:44.442Z,10.10
2022-10-29T03:14:11.854Z,10.08
2022-10-29T03:16:39.057Z,10.03
2022-10-29T03:19:06.180Z,10.03
2022-10-29T03:21:33.370Z,10.06
2022-10-29T03:24:00.652Z,10.03
2022-10-29T03:26:27.766Z,9.97
2022-10-29T03:28:55.695Z,10.00
2022-10-29T03:31:22.862Z,10.02
2022-10-29T03:33:49.974Z,9.99
2022-10-29T03:36:17.325Z,9.95
2022-10-29T03:38:44.495Z,9.89
2022-10-29T03:41:11.594Z,9.77
2022-10-29T03:43:39.585Z,9.75
2022-10-29T03:46:07.097Z,9.71
2022-10-29T03:48:34.370Z,9.69
2022-10-29T03:51:07.796Z,9.74
2022-10-29T03:53:36.473Z,9.75
2022-10-29T03:56:04.747Z,9.73
2022-10-29T03:58:32.097Z,9.74
2022-10-29T04:01:05.602Z,9.71
2022-10-29T04:03:34.187Z,9.72
2022-10-29T04:06:07.975Z,9.65
2022-10-29T04:08:34.989Z,9.65
2022-10-29T04:11:01.994Z,9.66
2022-10-29T04:13:29.141Z,9.70
2022-10-29T04:15:56.780Z,9.68
2022-10-29T04:18:25.445Z,9.62
2022-10-29T04:28:17.577Z,9.55
2022-10-29T04:29:15.385Z,9.64
2022-10-29T04:31:42.943Z,9.60
2022-10-29T04:34:10.082Z,9.60
2022-10-29T04:36:37.174Z,9.60
2022-10-29T04:39:04.540Z,9.64
2022-10-29T04:41:31.703Z,9.64
2022-10-29T04:43:58.905Z,9.60
2022-10-29T04:46:26.033Z,9.58
2022-10-29T04:48:53.163Z,9.58
2022-10-29T04:51:22.008Z,9.60
2022-10-29T04:53:50.423Z,9.56
2022-10-29T04:56:18.874Z,9.58
2022-10-29T04:58:46.215Z,9.54
2022-10-29T05:01:13.637Z,9.51
2022-10-29T05:03:40.953Z,9.55
2022-10-29T05:06:08.066Z,9.51
2022-10-29T05:08:35.235Z,9.51
2022-10-29T05:11:06.511Z,9.52
2022-10-29T05:13:34.294Z,9.52
2022-10-29T05:16:01.717Z,9.58
2022-10-29T05:18:28.949Z,9.55
2022-10-29T05:20:56.842Z,9.59
2022-10-29T05:23:24.316Z,9.60
2022-10-29T05:25:52.384Z,9.57
2022-10-29T05:28:22.544Z,9.56
2022-10-29T05:30:51.844Z,9.56
2022-10-29T05:33:21.568Z,9.51
2022-10-29T05:35:49.052Z,9.49
2022-10-29T05:38:16.830Z,9.51
2022-10-29T05:40:45.192Z,9.48
2022-10-29T05:43:14.580Z,9.39
2022-10-29T05:45:42.455Z,9.38
2022-10-29T05:50:43.043Z,9.41
2022-10-29T05:53:12.702Z,9.43
2022-10-29T05:55:40.996Z,9.47
2022-10-29T05:58:12.390Z,9.47
2022-10-29T06:00:43.141Z,9.50
2022-10-29T06:03:18.921Z,9.45
2022-10-29T06:05:47.130Z,9.47
2022-10-29T06:08:14.603Z,9.48
2022-10-29T06:10:41.738Z,9.57
2022-10-29T06:13:18.045Z,9.60
2022-10-29T06:15:46.512Z,9.62
2022-10-29T06:18:13.996Z,9.67
2022-10-29T06:20:41.169Z,9.71
2022-10-29T06:23:10.436Z,9.80
2022-10-29T06:25:37.517Z,9.73
2022-10-29T06:28:11.974Z,9.84
2022-10-29T06:30:39.094Z,9.94
2022-10-29T06:33:06.241Z,9.99
2022-10-29T06:38:07.805Z,10.01
2022-10-29T06:40:40.118Z,10.08
2022-10-29T06:43:10.397Z,10.11
2022-10-29T06:45:37.514Z,10.21
2022-10-29T06:48:05.489Z,10.28
2022-10-29T06:50:32.631Z,10.42
2022-10-29T06:53:05.325Z,10.51
2022-10-29T06:55:35.827Z,10.63
2022-10-29T06:58:06.597Z,10.67
2022-10-29T07:00:34.927Z,10.75
2022-10-29T07:03:03.516Z,10.88
2022-10-29T07:05:31.444Z,11.00
2022-10-29T07:08:00.493Z,11.15
2022-10-29T07:10:32.261Z,11.27
2022-10-29T07:13:00.333Z,11.40
2022-10-29T07:15:30.654Z,11.57
2022-10-29T07:18:06.479Z,11.67
2022-10-29T07:20:40.467Z,11.80
2022-10-29T07:23:08.374Z,11.97
2022-10-29T07:25:37.331Z,12.08
2022-10-29T07:28:20.781Z,12.22
2022-10-29T07:30:48.673Z,12.39
2022-10-29T07:33:16.697Z,12.55
2022-10-29T07:35:44.836Z,12.69
2022-10-29T07:38:13.008Z,12.88
2022-10-29T07:40:47.117Z,13.06
2022-10-29T07:43:14.808Z,13.22
2022-10-29T07:45:46.305Z,13.36
2022-10-29T07:48:13.496Z,13.55
2022-10-29T07:50:40.661Z,13.79
2022-10-29T07:53:09.651Z,13.97
2022-10-29T07:55:36.925Z,14.15
2022-10-29T07:58:07.088Z,14.38
2022-10-29T08:00:36.736Z,14.57
2022-10-29T08:03:05.095Z,14.77
2022-10-29T08:05:32.686Z,14.93
2022-10-29T08:08:00.415Z,15.14
2022-10-29T08:10:29.552Z,15.30
2022-10-29T08:12:59.180Z,15.44
2022-10-29T08:15:28.956Z,15.59
2022-10-29T08:17:56.790Z,15.75
2022-10-29T08:20:25.855Z,15.93
2022-10-29T08:22:53.136Z,16.11
2022-10-29T08:25:20.912Z,16.23
2022-10-29T08:28:01.695Z,16.41
2022-10-29T08:30:29.196Z,16.52
2022-10-29T08:32:56.641Z,16.66
2022-10-29T08:35:24.088Z,16.75
2022-10-29T08:37:51.767Z,16.85
2022-10-29T08:40:24.615Z,16.99
2022-10-29T08:43:18.814Z,17.16
2022-10-29T08:45:48.636Z,17.34
2022-10-29T08:48:15.758Z,17.39
2022-10-29T08:50:47.084Z,17.58
2022-10-29T08:53:31.302Z,17.64
2022-10-29T08:56:00.932Z,17.78
2022-10-29T08:58:35.609Z,17.79
2022-10-29T09:01:03.225Z,17.85
2022-10-29T09:03:30.384Z,18.02
2022-10-29T09:06:12.936Z,18.06
2022-10-29T09:09:05.335Z,18.20
2022-10-29T09:12:16.989Z,18.26
2022-10-29T09:15:00.817Z,18.36
2022-10-29T09:17:43.179Z,18.48
2022-10-29T09:20:31.647Z,18.63
2022-10-29T09:23:14.366Z,18.60
2022-10-29T09:25:59.302Z,18.76
2022-10-29T09:28:45.100Z,18.87
2022-10-29T09:31:37.118Z,18.87
2022-10-29T09:34:17.936Z,18.97
2022-10-29T09:36:46.824Z,18.96
2022-10-29T09:39:40.096Z,19.15
2022-10-29T09:42:21.871Z,19.32
2022-10-29T09:45:02.595Z,19.38
2022-10-29T09:47:38.581Z,19.57
2022-10-29T09:50:32.982Z,19.56
2022-10-29T09:53:00.329Z,19.63
2022-10-29T09:55:34.354Z,19.72
2022-10-29T09:58:01.560Z,19.62
2022-10-29T10:00:31.180Z,19.80
2022-10-29T10:03:10.193Z,19.91
2022-10-29T10:05:57.008Z,20.13
2022-10-29T10:08:24.133Z,20.30
2022-10-29T10:10:56.622Z,20.44
2022-10-29T10:13:27.632Z,20.51
2022-10-29T10:15:57.792Z,20.53
2022-10-29T10:18:38.846Z,20.62
2022-10-29T10:21:11.740Z,20.71
2022-10-29T10:23:51.675Z,20.68
2022-10-29T10:26:39.386Z,20.68
2022-10-29T10:29:20.903Z,20.94
2022-10-29T10:31:50.321Z,20.97
2022-10-29T10:34:23.290Z,21.03
2022-10-29T10:36:53.725Z,21.00
2022-10-29T10:39:35.272Z,21.19
2022-10-29T10:42:17.961Z,21.23
2022-10-29T10:44:54.419Z,21.30
2022-10-29T10:47:25.050Z,21.64
2022-10-29T10:49:52.476Z,21.56
2022-10-29T10:52:26.495Z,21.61
2022-10-29T10:55:00.345Z,21.52
2022-10-29T10:57:35.314Z,21.69
2022-10-29T11:00:18.797Z,21.74
2022-10-29T11:02:45.748Z,21.92
2022-10-29T11:05:21.607Z,22.01
2022-10-29T11:07:59.335Z,22.13
2022-10-29T11:10:55.089Z,22.34
2022-10-29T11:13:29.019Z,22.34
2022-10-29T11:16:13.681Z,22.41
2022-10-29T11:19:05.524Z,22.44
2022-10-29T11:21:38.716Z,22.33
2022-10-29T11:24:26.081Z,22.45
2022-10-29T11:27:00.513Z,22.57
2022-10-29T11:29:30.465Z,22.88
2022-10-29T11:32:10.233Z,22.85
2022-10-29T11:34:54.010Z,22.98
2022-10-29T11:37:23.914Z,22.91
2022-10-29T11:40:06.405Z,22.99
2022-10-29T11:42:33.645Z,23.03
2022-10-29T11:45:00.797Z,23.02
2022-10-29T11:47:27.849Z,23.24
2022-10-29T11:50:14.927Z,23.37
2022-10-29T11:52:52.517Z,23.39
2022-10-29T11:55:19.607Z,23.38
2022-10-29T11:58:01.511Z,23.48
2022-10-29T12:00:47.941Z,23.62
2022-10-29T12:03:17.817Z,23.58
2022-10-29T12:05:44.951Z,23.90
2022-10-29T12:08:35.594Z,23.98
2022-10-29T12:11:24.140Z,23.98
2022-10-29T12:14:23.438Z,23.98
2022-10-29T12:17:18.136Z,24.07
2022-10-29T12:20:13.601Z,23.84
2022-10-29T12:22:48.509Z,23.97
2022-10-29T12:25:15.589Z,23.90
2022-10-29T12:28:11.894Z,24.36
2022-10-29T12:30:47.751Z,24.27
2022-10-29T12:33:27.522Z,24.19
2022-10-29T12:38:56.344Z,24.15
2022-10-29T12:41:47.253Z,24.31
2022-10-29T12:44:25.305Z,24.42
2022-10-29T12:47:06.369Z,24.35
2022-10-29T12:50:03.872Z,24.42
2022-10-29T12:52:40.023Z,24.56
2022-10-29T12:55:10.760Z,24.38
2022-10-29T12:57:38.327Z,24.51
2022-10-29T13:00:23.593Z,24.54
2022-10-29T13:02:52.092Z,24.54
2022-10-29T13:05:39.644Z,24.35
2022-10-29T13:08:06.672Z,24.45
2022-10-29T13:10:33.732Z,24.41
2022-10-29T13:13:20.961Z,24.44
2022-10-29T13:15:59.493Z,24.44
2022-10-29T13:18:48.403Z,24.18
2022-10-29T13:21:53.909Z,24.29
2022-10-29T13:24:21.076Z,24.40
2022-10-29T13:27:03.168Z,24.22
2022-10-29T13:30:18.088Z,24.13
2022-10-29T13:32:45.256Z,23.95
2022-10-29T13:35:18.300Z,23.99
2022-10-29T13:37:45.373Z,23.96
2022-10-29T13:40:33.546Z,23.87
2022-10-29T13:43:09.942Z,23.88
2022-10-29T13:45:41.156Z,23.96
2022-10-29T13:48:19.507Z,23.77
2022-10-29T13:50:51.229Z,23.75
2022-10-29T13:53:24.873Z,23.59
2022-10-29T13:55:53.137Z,23.65
2022-10-29T13:58:34.553Z,23.57
2022-10-29T14:01:07.788Z,23.66
2022-10-29T14:03:54.456Z,23.65
2022-10-29T14:06:42.229Z,23.70
2022-10-29T14:09:22.336Z,23.69
2022-10-29T14:12:00.552Z,23.66
2022-10-29T14:14:33.265Z,23.57
2022-10-29T14:17:17.653Z,23.59
2022-10-29T14:19:50.466Z,23.53
2022-10-29T14:22:37.052Z,23.43
2022-10-29T14:25:30.055Z,23.48
2022-10-29T14:28:35.469Z,23.47
2022-10-29T14:31:06.482Z,23.43
2022-10-29T14:33:38.655Z,23.38
2022-10-29T14:36:05.835Z,23.32
2022-10-29T14:38:41.576Z,23.20
2022-10-29T14:41:09.880Z,23.14
2022-10-29T14:43:37.889Z,23.03
2022-10-29T14:46:18.707Z,22.78
2022-10-29T14:48:59.899Z,22.70
2022-10-29T14:51:27.723Z,22.56
2022-10-29T14:54:04.285Z,22.46
2022-10-29T14:56:35.168Z,22.30
2022-10-29T14:59:09.960Z,22.20
2022-10-29T15:01:46.621Z,22.10
2022-10-29T15:04:22.973Z,22.00
2022-10-29T15:06:50.278Z,21.86
2022-10-29T15:09:26.865Z,21.76
2022-10-29T15:12:02.949Z,21.65
2022-10-29T15:14:50.235Z,21.56
2022-10-29T15:17:27.995Z,21.53
2022-10-29T15:19:59.436Z,21.39
2022-10-29T15:24:56.789Z,21.22
2022-10-29T15:27:24.456Z,21.12
2022-10-29T15:29:53.336Z,21.03
2022-10-29T15:32:21.037Z,20.92
2022-10-29T15:34:51.398Z,20.81
2022-10-29T15:37:18.416Z,20.72
2022-10-29T15:40:12.271Z,20.61
2022-10-29T15:42:39.747Z,20.49
2022-10-29T15:47:55.156Z,20.28
2022-10-29T15:50:26.009Z,20.17
2022-10-29T15:53:05.594Z,20.06
2022-10-29T15:55:36.258Z,19.92
2022-10-29T15:58:11.185Z,19.77
2022-10-29T16:00:38.331Z,19.65
2022-10-29T16:03:19.176Z,19.54
2022-10-29T16:05:49.571Z,19.45
2022-10-29T16:08:31.564Z,19.32
2022-10-29T16:11:00.937Z,19.19
2022-10-29T16:13:30.523Z,19.08
2022-10-29T16:15:57.618Z,18.97
2022-10-29T16:18:24.725Z,18.89
2022-10-29T16:21:01.949Z,18.83
2022-10-29T16:23:29.069Z,18.76
2022-10-29T16:25:56.228Z,18.66
2022-10-29T16:28:23.353Z,18.55
2022-10-29T16:30:54.067Z,18.39
2022-10-29T16:33:21.963Z,18.28
2022-10-29T16:35:49.121Z,18.21
2022-10-29T16:38:19.477Z,18.19
2022-10-29T16:40:46.792Z,18.18
2022-10-29T16:43:13.869Z,18.12
2022-10-29T16:45:41.274Z,18.04
2022-10-29T16:48:08.445Z,17.99
2022-10-29T16:50:35.600Z,17.97
2022-10-29T16:53:10.192Z,17.95
2022-10-29T16:55:39.466Z,17.94
2022-10-29T16:58:17.411Z,17.92
2022-10-29T17:00:45.481Z,17.88
2022-10-29T17:03:14.354Z,17.83
2022-10-29T17:05:44.689Z,17.80
2022-10-29T17:08:12.600Z,17.79
2022-10-29T17:10:40.082Z,17.74
2022-10-29T17:13:08.943Z,17.64
2022-10-29T17:15:39.677Z,17.52
2022-10-29T17:18:06.875Z,17.46
2022-10-29T17:20:33.989Z,17.32
2022-10-29T17:23:01.101Z,17.23
2022-10-29T17:25:28.261Z,17.18
2022-10-29T17:27:55.771Z,17.10
2022-10-29T17:30:23.133Z,17.02
2022-10-29T17:32:50.296Z,16.94
2022-10-29T17:35:17.456Z,16.84
2022-10-29T17:37:44.660Z,16.78
2022-10-29T17:40:12.093Z,16.74
2022-10-29T17:42:39.262Z,16.70
2022-10-29T17:45:07.004Z,16.66
2022-10-29T17:47:34.180Z,16.65
2022-10-29T17:50:01.572Z,16.60
2022-10-29T17:52:28.682Z,16.52
2022-10-29T17:54:55.808Z,16.47
2022-10-29T17:57:22.910Z,16.42
2022-10-29T17:59:50.008Z,16.33
2022-10-29T18:02:17.244Z,16.29
2022-10-29T18:04:45.800Z,16.22
2022-10-29T18:07:12.934Z,16.22
2022-10-29T18:09:40.037Z,16.15
2022-10-29T18:12:07.393Z,16.05
2022-10-29T18:14:34.459Z,15.93
2022-10-29T18:17:02.796Z,15.87
2022-10-29T18:19:29.935Z,15.82
2022-10-29T18:21:57.048Z,15.81
2022-10-29T18:24:24.352Z,15.79
2022-10-29T18:26:51.649Z,15.75
2022-10-29T18:29:18.880Z,15.71
2022-10-29T18:31:46.758Z,15.67
2022-10-29T18:34:15.215Z,15.60
2022-10-29T18:36:43.137Z,15.53
2022-10-29T18:39:10.353Z,15.45
2022-10-29T18:41:37.509Z,15.35
2022-10-29T18:44:05.008Z,15.18
2022-10-29T18:46:32.700Z,15.05
2022-10-29T18:49:00.720Z,14.97
2022-10-29T18:51:30.875Z,14.86
2022-10-29T18:53:59.533Z,14.75
2022-10-29T18:56:28.432Z,14.72
2022-10-29T18:58:56.680Z,14.72
2022-10-29T19:01:27.333Z,14.71
2022-10-29T19:03:57.033Z,14.66
2022-10-29T19:06:27.057Z,14.64
2022-10-29T19:08:55.101Z,14.60
2022-10-29T19:11:26.225Z,14.57
2022-10-29T19:13:55.360Z,14.52
2022-10-29T19:16:22.773Z,14.49
2022-10-29T19:18:58.030Z,14.47
2022-10-29T19:21:26.382Z,14.33
2022-10-29T19:23:57.546Z,14.34
2022-10-29T19:26:27.352Z,14.32
2022-10-29T19:28:54.981Z,14.31
2022-10-29T19:31:26.257Z,14.25
2022-10-29T19:33:58.965Z,14.20
2022-10-29T19:36:27.868Z,14.15
2022-10-29T19:38:56.173Z,14.11
2022-10-29T19:41:23.914Z,14.06
2022-10-29T19:43:51.118Z,13.99
2022-10-29T19:46:23.951Z,13.93
2022-10-29T19:48:53.376Z,13.88
2022-10-29T19:51:21.763Z,13.85
2022-10-29T19:53:51.279Z,13.81
2022-10-29T19:56:19.323Z,13.76
2022-10-29T19:58:46.830Z,13.81
2022-10-29T20:01:16.430Z,13.78
2022-10-29T20:03:44.736Z,13.78
2022-10-29T20:06:12.265Z,13.76
2022-10-29T20:08:39.503Z,13.77
2022-10-29T20:11:06.933Z,13.72
2022-10-29T20:13:34.149Z,13.67
2022-10-29T20:16:10.622Z,13.61
2022-10-29T20:18:38.270Z,13.62
2022-10-29T20:23:38.169Z,13.57
2022-10-29T20:26:06.516Z,13.60
2022-10-29T20:28:33.870Z,13.71
2022-10-29T20:31:23.649Z,13.79
2022-10-29T20:33:52.522Z,13.83
2022-10-29T20:36:20.401Z,13.84
2022-10-29T20:38:49.384Z,13.83
2022-10-29T20:41:17.401Z,13.82
2022-10-29T20:43:45.238Z,13.81
2022-10-29T20:46:12.381Z,13.76
2022-10-29T20:48:39.477Z,13.73
2022-10-29T20:51:06.754Z,13.65
2022-10-29T20:53:33.861Z,13.63
2022-10-29T20:56:00.985Z,13.61
2022-10-29T20:58:28.115Z,13.57
2022-10-29T21:00:55.319Z,13.49
2022-10-29T21:03:22.506Z,13.45
2022-10-29T21:05:49.704Z,13.41
2022-10-29T21:08:17.416Z,13.39
2022-10-29T21:10:44.544Z,13.32
2022-10-29T21:13:11.679Z,13.24
2022-10-29T21:15:38.777Z,13.18
2022-10-29T21:18:05.947Z,13.18
2022-10-29T21:20:33.074Z,13.13
2022-10-29T21:23:00.644Z,13.08
2022-10-29T21:25:28.186Z,13.07
2022-10-29T21:27:55.809Z,13.04
2022-10-29T21:30:23.313Z,13.00
2022-10-29T21:32:50.500Z,12.98
2022-10-29T21:35:17.630Z,12.95
2022-10-29T21:37:44.960Z,12.88
2022-10-29T21:40:12.558Z,12.86
2022-10-29T21:42:40.195Z,12.82
2022-10-29T21:45:07.552Z,12.75
2022-10-29T21:47:34.632Z,12.73
2022-10-29T21:50:01.786Z,12.76
2022-10-29T21:52:28.917Z,12.74
2022-10-29T21:54:55.978Z,12.70
2022-10-29T21:57:23.086Z,12.66
2022-10-29T21:59:50.205Z,12.64
2022-10-29T22:02:17.401Z,12.60
2022-10-29T22:04:44.546Z,12.61
2022-10-29T22:07:11.649Z,12.61
2022-10-29T22:09:38.754Z,12.61
2022-10-29T22:12:06.128Z,12.60
2022-10-29T22:14:33.321Z,12.61
2022-10-29T22:17:00.441Z,12.65
2022-10-29T22:19:27.706Z,12.62
2022-10-29T22:21:55.804Z,12.66
2022-10-29T22:24:22.913Z,12.62
2022-10-29T22:26:50.010Z,12.55
2022-10-29T22:29:17.122Z,12.59
2022-10-29T22:31:44.370Z,12.61
2022-10-29T22:34:11.559Z,12.63
2022-10-29T22:36:38.680Z,12.62
2022-10-29T22:39:06.561Z,12.61
2022-10-29T22:41:33.675Z,12.54
2022-10-29T22:44:01.134Z,12.53
2022-10-29T22:46:29.709Z,12.42
2022-10-29T22:48:56.986Z,12.34
2022-10-29T22:51:26.770Z,12.33
2022-10-29T22:53:54.025Z,12.26
2022-10-29T22:56:25.502Z,12.19
2022-10-29T22:58:53.359Z,12.09
2022-10-29T23:01:31.895Z,12.03
2022-10-29T23:03:59.421Z,11.99
2022-10-29T23:06:27.275Z,11.97
2022-10-29T23:08:58.202Z,11.99
2022-10-29T23:11:27.459Z,12.08
2022-10-29T23:13:59.629Z,12.07
2022-10-29T23:16:29.492Z,12.08
2022-10-29T23:18:59.855Z,12.03
2022-10-29T23:21:27.455Z,11.97
2022-10-29T23:23:55.131Z,11.92
2022-10-29T23:26:24.182Z,11.90
2022-10-29T23:28:51.596Z,11.80
2022-10-29T23:31:24.559Z,11.82
2022-10-29T23:33:53.825Z,11.79
2022-10-29T23:36:23.021Z,11.77
2022-10-29T23:39:01.094Z,11.77
2022-10-29T23:41:29.424Z,11.70
2022-10-29T23:43:57.363Z,11.61
2022-10-29T23:46:24.713Z,11.62
2022-10-29T23:48:51.852Z,11.63
2022-10-29T23:51:19.482Z,11.61
2022-10-29T23:53:47.586Z,11.58
2022-10-29T23:56:16.185Z,11.55
2022-10-29T23:58:43.280Z,11.45
